createdAt,value
2022-11-24T00:03:10.631Z,22.20
2022-11-24T00:13:16.130Z,22.23
2022-11-24T00:23:21.156Z,22.30
2022-11-24T00:33:26.711Z,22.41
2022-11-24T00:43:32.117Z,22.37
2022-11-24T00:53:37.304Z,22.43
2022-11-24T01:03:42.723Z,22.46
2022-11-24T01:13:47.970Z,22.48
2022-11-24T01:23:53.200Z,22.49
2022-11-24T01:33:58.588Z,22.45
2022-11-24T01:44:03.740Z,22.45
2022-11-24T01:54:08.982Z,22.40
2022-11-24T02:04:14.700Z,22.38
2022-11-24T02:14:20.565Z,22.43
2022-11-24T02:24:25.570Z,22.44
2022-11-24T02:34:31.011Z,22.47
2022-11-24T02:44:36.415Z,22.46
2022-11-24T02:54:41.473Z,22.38
2022-11-24T03:04:46.733Z,22.36
2022-11-24T03:14:51.925Z,22.36
2022-11-24T03:24:57.486Z,22.44
2022-11-24T03:35:02.757Z,22.45
2022-11-24T03:45:45.065Z,22.42
2022-11-24T03:55:19.872Z,22.35
2022-11-24T04:05:25.293Z,22.31
2022-11-24T04:15:30.728Z,22.32
2022-11-24T04:25:35.780Z,22.40
2022-11-24T04:35:40.956Z,22.42
2022-11-24T04:45:46.093Z,22.37
2022-11-24T04:55:51.277Z,22.39
2022-11-24T05:05:56.518Z,22.36
2022-11-24T05:16:01.657Z,22.36
2022-11-24T05:26:06.850Z,22.36
2022-11-24T05:36:11.689Z,22.37
2022-11-24T05:46:16.927Z,22.37
2022-11-24T05:56:22.600Z,22.37
2022-11-24T06:06:28.028Z,22.37
2022-11-24T06:16:33.201Z,22.38
2022-11-24T06:26:38.112Z,22.36
2022-11-24T06:36:43.274Z,22.33
2022-11-24T06:46:48.530Z,22.28
2022-11-24T06:56:53.386Z,22.27
2022-11-24T07:06:58.731Z,22.34
2022-11-24T07:17:04.893Z,22.37
2022-11-24T07:27:09.874Z,22.38
2022-11-24T07:37:14.807Z,22.35
2022-11-24T07:47:20.130Z,22.33
2022-11-24T07:57:25.837Z,22.30
2022-11-24T08:07:31.208Z,22.31
2022-11-24T08:17:36.616Z,22.34
2022-11-24T08:27:41.814Z,22.31
2022-11-24T08:37:47.188Z,22.33
2022-11-24T08:47:52.237Z,22.32
2022-11-24T09:08:02.033Z,22.03
2022-11-24T09:18:07.352Z,21.98
2022-11-24T09:28:12.077Z,21.99
2022-11-24T09:38:17.370Z,21.93
2022-11-24T09:48:22.791Z,21.91
2022-11-24T09:58:28.154Z,21.88
2022-11-24T10:08:33.444Z,21.89
2022-11-24T10:18:38.841Z,22.26
2022-11-24T10:28:44.076Z,22.13
2022-11-24T10:38:49.734Z,22.10
2022-11-24T10:48:54.898Z,22.08
2022-11-24T11:09:08.348Z,22.00
2022-11-24T11:19:41.324Z,21.98
2022-11-24T11:39:34.102Z,21.98
2022-11-24T11:49:39.750Z,21.97
2022-11-24T11:59:45.467Z,21.97
2022-11-24T12:09:50.784Z,21.97
2022-11-24T12:19:55.947Z,21.92
2022-11-24T12:30:01.209Z,21.92
2022-11-24T12:40:06.620Z,21.93
2022-11-24T12:50:11.852Z,21.92
2022-11-24T13:00:17.105Z,21.95
2022-11-24T13:10:40.092Z,22.02
2022-11-24T13:20:32.777Z,22.17
2022-11-24T13:30:38.561Z,22.32
2022-11-24T13:40:59.887Z,22.50
2022-11-24T13:50:53.787Z,22.60
2022-11-24T14:00:59.324Z,22.63
2022-11-24T14:11:04.156Z,22.61
2022-11-24T14:21:09.153Z,22.62
2022-11-24T14:31:14.574Z,22.63
2022-11-24T14:41:20.086Z,22.79
2022-11-24T14:51:25.644Z,22.76
2022-11-24T15:01:30.953Z,22.80
2022-11-24T15:11:36.010Z,22.81
2022-11-24T15:21:41.117Z,23.06
2022-11-24T15:31:50.972Z,22.81
2022-11-24T15:41:56.711Z,22.83
2022-11-24T15:52:01.951Z,22.85
2022-11-24T16:02:07.252Z,22.87
2022-11-24T16:12:12.301Z,22.89
2022-11-24T16:22:17.058Z,22.88
2022-11-24T16:32:22.449Z,22.70
2022-11-24T16:42:27.732Z,22.77
2022-11-24T16:52:33.424Z,23.01
2022-11-24T17:02:38.728Z,23.17
2022-11-24T17:12:44.222Z,23.23
2022-11-24T17:22:49.394Z,23.12
2022-11-24T17:32:56.946Z,23.02
2022-11-24T17:43:02.402Z,23.06
2022-11-24T17:53:08.855Z,23.19
2022-11-24T18:03:14.283Z,23.17
2022-11-24T18:13:41.208Z,23.23
2022-11-24T18:23:29.836Z,23.21
2022-11-24T18:33:35.121Z,23.37
2022-11-24T18:43:40.440Z,23.21
2022-11-24T18:53:45.776Z,23.22
2022-11-24T19:03:50.734Z,23.26
2022-11-24T19:13:55.892Z,23.35
2022-11-24T19:24:05.327Z,23.38
2022-11-24T19:34:11.363Z,23.43
2022-11-24T19:44:16.523Z,23.40
2022-11-24T19:54:21.655Z,23.33
2022-11-24T20:04:27.037Z,23.32
2022-11-24T20:14:32.403Z,23.32
2022-11-24T20:24:37.966Z,23.32
2022-11-24T20:34:43.385Z,23.52
2022-11-24T20:44:48.813Z,23.55
2022-11-24T20:54:53.899Z,23.46
2022-11-24T21:04:58.973Z,23.33
2022-11-24T21:15:04.582Z,23.40
2022-11-24T21:25:09.725Z,23.45
2022-11-24T21:35:14.984Z,23.36
2022-11-24T21:45:20.455Z,23.31
2022-11-24T21:55:25.776Z,23.28
2022-11-24T22:05:30.943Z,23.17
2022-11-24T22:15:36.367Z,23.27
2022-11-24T22:25:41.342Z,23.23
2022-11-24T22:35:46.262Z,23.22
2022-11-24T22:45:51.929Z,23.37
2022-11-24T22:55:57.236Z,23.40
2022-11-24T23:06:02.684Z,23.22
2022-11-24T23:16:07.723Z,22.89
2022-11-24T23:26:13.096Z,22.97
2022-11-24T23:36:18.480Z,23.07
2022-11-24T23:46:23.877Z,23.10
2022-11-24T23:56:29.075Z,23.12
